sensor_id;sensor_type;location;lat;lon;timestamp;temperature;humidity
72883;DHT22;61017;37.812;-122.286;2023-11-19T00:00:13;22.40;59.00
72883;DHT22;61017;37.812;-122.286;2023-11-19T00:01:45;22.40;58.80
72883;DHT22;61017;37.812;-122.286;2023-11-19T00:03:16;22.40;58.80
72883;DHT22;61017;37.812;-122.286;2023-11-19T00:04:51;22.30;59.40
72883;DHT22;61017;37.812;-122.286;2023-11-19T00:06:22;22.20;60.60
72883;DHT22;61017;37.812;-122.286;2023-11-19T00:07:54;22.00;61.90
72883;DHT22;61017;37.812;-122.286;2023-11-19T00:09:26;21.80;62.20
72883;DHT22;61017;37.812;-122.286;2023-11-19T00:10:57;21.70;63.30
72883;DHT22;61017;37.812;-122.286;2023-11-19T00:12:35;21.60;63.90
72883;DHT22;61017;37.812;-122.286;2023-11-19T00:14:06;21.50;64.70
72883;DHT22;61017;37.812;-122.286;2023-11-19T00:15:38;21.40;65.30
72883;DHT22;61017;37.812;-122.286;2023-11-19T00:17:09;21.30;65.80
72883;DHT22;61017;37.812;-122.286;2023-11-19T00:18:41;21.20;66.70
72883;DHT22;61017;37.812;-122.286;2023-11-19T00:20:17;21.20;67.30
72883;DHT22;61017;37.812;-122.286;2023-11-19T00:21:48;21.10;68.10
72883;DHT22;61017;37.812;-122.286;2023-11-19T00:23:20;21.10;68.10
72883;DHT22;61017;37.812;-122.286;2023-11-19T00:24:51;21.00;68.40
72883;DHT22;61017;37.812;-122.286;2023-11-19T00:26:23;21.00;69.10
72883;DHT22;61017;37.812;-122.286;2023-11-19T00:27:57;21.00;68.90
72883;DHT22;61017;37.812;-122.286;2023-11-19T00:29:28;21.00;70.00
72883;DHT22;61017;37.812;-122.286;2023-11-19T00:31:00;20.90;70.30
72883;DHT22;61017;37.812;-122.286;2023-11-19T00:32:32;20.90;70.40
72883;DHT22;61017;37.812;-122.286;2023-11-19T00:34:04;20.90;70.50
72883;DHT22;61017;37.812;-122.286;2023-11-19T00:35:36;20.90;70.80
72883;DHT22;61017;37.812;-122.286;2023-11-19T00:37:07;20.80;70.90
72883;DHT22;61017;37.812;-122.286;2023-11-19T00:38:39;20.80;71.00
72883;DHT22;61017;37.812;-122.286;2023-11-19T00:40:14;20.80;71.40
72883;DHT22;61017;37.812;-122.286;2023-11-19T00:41:45;20.70;71.40
72883;DHT22;61017;37.812;-122.286;2023-11-19T00:43:17;20.70;71.70
72883;DHT22;61017;37.812;-122.286;2023-11-19T00:44:49;20.70;71.80
72883;DHT22;61017;37.812;-122.286;2023-11-19T00:46:21;20.70;72.10
72883;DHT22;61017;37.812;-122.286;2023-11-19T00:47:52;20.70;72.80
72883;DHT22;61017;37.812;-122.286;2023-11-19T00:49:24;20.70;72.80
72883;DHT22;61017;37.812;-122.286;2023-11-19T00:50:55;20.60;73.00
72883;DHT22;61017;37.812;-122.286;2023-11-19T00:52:27;20.60;73.20
72883;DHT22;61017;37.812;-122.286;2023-11-19T00:53:59;20.60;73.50
72883;DHT22;61017;37.812;-122.286;2023-11-19T00:55:31;20.60;74.00
72883;DHT22;61017;37.812;-122.286;2023-11-19T00:57:02;20.60;73.70
72883;DHT22;61017;37.812;-122.286;2023-11-19T00:58:34;20.60;73.70
72883;DHT22;61017;37.812;-122.286;2023-11-19T01:00:09;20.50;74.10
72883;DHT22;61017;37.812;-122.286;2023-11-19T01:01:44;20.50;74.40
72883;DHT22;61017;37.812;-122.286;2023-11-19T01:03:15;20.50;74.30
72883;DHT22;61017;37.812;-122.286;2023-11-19T01:04:47;20.50;74.60
72883;DHT22;61017;37.812;-122.286;2023-11-19T01:06:29;20.50;75.00
72883;DHT22;61017;37.812;-122.286;2023-11-19T01:08:01;20.50;75.50
72883;DHT22;61017;37.812;-122.286;2023-11-19T01:09:33;20.40;75.20
72883;DHT22;61017;37.812;-122.286;2023-11-19T01:11:04;20.50;75.50
72883;DHT22;61017;37.812;-122.286;2023-11-19T01:12:36;20.40;75.70
72883;DHT22;61017;37.812;-122.286;2023-11-19T01:14:11;20.50;75.50
72883;DHT22;61017;37.812;-122.286;2023-11-19T01:15:43;20.40;75.60
72883;DHT22;61017;37.812;-122.286;2023-11-19T01:17:15;20.40;76.10
72883;DHT22;61017;37.812;-122.286;2023-11-19T01:18:50;20.40;76.40
72883;DHT22;61017;37.812;-122.286;2023-11-19T01:20:21;20.40;76.10
72883;DHT22;61017;37.812;-122.286;2023-11-19T01:21:53;20.40;76.40
72883;DHT22;61017;37.812;-122.286;2023-11-19T01:23:24;20.40;76.40
72883;DHT22;61017;37.812;-122.286;2023-11-19T01:25:00;20.40;77.20
72883;DHT22;61017;37.812;-122.286;2023-11-19T01:26:34;20.40;76.60
72883;DHT22;61017;37.812;-122.286;2023-11-19T01:28:06;20.30;76.70
72883;DHT22;61017;37.812;-122.286;2023-11-19T01:29:40;20.30;76.50
72883;DHT22;61017;37.812;-122.286;2023-11-19T01:31:12;20.30;76.40
72883;DHT22;61017;37.812;-122.286;2023-11-19T01:32:46;20.30;76.20
72883;DHT22;61017;37.812;-122.286;2023-11-19T01:34:17;20.30;76.60
72883;DHT22;61017;37.812;-122.286;2023-11-19T01:35:49;20.30;76.60
72883;DHT22;61017;37.812;-122.286;2023-11-19T01:37:20;20.30;77.00
72883;DHT22;61017;37.812;-122.286;2023-11-19T01:38:52;20.30;76.80
72883;DHT22;61017;37.812;-122.286;2023-11-19T01:40:23;20.30;76.70
72883;DHT22;61017;37.812;-122.286;2023-11-19T01:41:55;20.30;77.00
72883;DHT22;61017;37.812;-122.286;2023-11-19T01:43:39;20.30;77.30
72883;DHT22;61017;37.812;-122.286;2023-11-19T01:45:22;20.30;77.10
72883;DHT22;61017;37.812;-122.286;2023-11-19T01:46:58;20.30;76.90
72883;DHT22;61017;37.812;-122.286;2023-11-19T01:48:34;20.30;77.20
72883;DHT22;61017;37.812;-122.286;2023-11-19T01:50:08;20.20;77.00
72883;DHT22;61017;37.812;-122.286;2023-11-19T01:51:40;20.30;77.50
72883;DHT22;61017;37.812;-122.286;2023-11-19T01:53:12;20.20;77.70
72883;DHT22;61017;37.812;-122.286;2023-11-19T01:54:46;20.20;77.60
72883;DHT22;61017;37.812;-122.286;2023-11-19T01:56:18;20.30;77.80
72883;DHT22;61017;37.812;-122.286;2023-11-19T01:57:53;20.20;77.50
72883;DHT22;61017;37.812;-122.286;2023-11-19T01:59:28;20.20;77.40
72883;DHT22;61017;37.812;-122.286;2023-11-19T02:00:59;20.20;77.60
72883;DHT22;61017;37.812;-122.286;2023-11-19T02:02:31;20.20;77.80
72883;DHT22;61017;37.812;-122.286;2023-11-19T02:04:03;20.20;77.70
72883;DHT22;61017;37.812;-122.286;2023-11-19T02:05:37;20.20;78.00
72883;DHT22;61017;37.812;-122.286;2023-11-19T02:07:10;20.20;78.10
72883;DHT22;61017;37.812;-122.286;2023-11-19T02:08:42;20.20;78.10
72883;DHT22;61017;37.812;-122.286;2023-11-19T02:10:13;20.20;78.00
72883;DHT22;61017;37.812;-122.286;2023-11-19T02:11:45;20.20;78.30
72883;DHT22;61017;37.812;-122.286;2023-11-19T02:13:17;20.20;78.10
72883;DHT22;61017;37.812;-122.286;2023-11-19T02:14:49;20.20;78.30
72883;DHT22;61017;37.812;-122.286;2023-11-19T02:16:20;20.20;78.50
72883;DHT22;61017;37.812;-122.286;2023-11-19T02:17:52;20.20;78.60
72883;DHT22;61017;37.812;-122.286;2023-11-19T02:19:23;20.20;78.50
72883;DHT22;61017;37.812;-122.286;2023-11-19T02:20:58;20.20;78.30
72883;DHT22;61017;37.812;-122.286;2023-11-19T02:22:30;20.20;78.30
72883;DHT22;61017;37.812;-122.286;2023-11-19T02:24:07;20.10;78.30
72883;DHT22;61017;37.812;-122.286;2023-11-19T02:25:40;20.10;78.50
72883;DHT22;61017;37.812;-122.286;2023-11-19T02:27:21;20.10;78.80
72883;DHT22;61017;37.812;-122.286;2023-11-19T02:28:58;20.20;79.00
72883;DHT22;61017;37.812;-122.286;2023-11-19T02:30:30;20.10;79.00
72883;DHT22;61017;37.812;-122.286;2023-11-19T02:32:01;20.10;78.90
72883;DHT22;61017;37.812;-122.286;2023-11-19T02:33:33;20.10;79.00
72883;DHT22;61017;37.812;-122.286;2023-11-19T02:35:06;20.10;78.90
72883;DHT22;61017;37.812;-122.286;2023-11-19T02:36:38;20.10;78.90
72883;DHT22;61017;37.812;-122.286;2023-11-19T02:38:09;20.10;79.00
72883;DHT22;61017;37.812;-122.286;2023-11-19T02:39:41;20.10;79.00
72883;DHT22;61017;37.812;-122.286;2023-11-19T02:41:14;20.10;79.30
72883;DHT22;61017;37.812;-122.286;2023-11-19T02:42:45;20.10;79.10
72883;DHT22;61017;37.812;-122.286;2023-11-19T02:44:17;20.10;79.30
72883;DHT22;61017;37.812;-122.286;2023-11-19T02:45:49;20.10;79.20
72883;DHT22;61017;37.812;-122.286;2023-11-19T02:47:20;20.10;79.30
72883;DHT22;61017;37.812;-122.286;2023-11-19T02:48:52;20.10;80.10
72883;DHT22;61017;37.812;-122.286;2023-11-19T02:50:23;20.00;79.30
72883;DHT22;61017;37.812;-122.286;2023-11-19T02:51:55;20.10;79.50
72883;DHT22;61017;37.812;-122.286;2023-11-19T02:53:26;20.00;79.30
72883;DHT22;61017;37.812;-122.286;2023-11-19T02:55:04;20.00;79.50
72883;DHT22;61017;37.812;-122.286;2023-11-19T02:56:35;20.10;79.50
72883;DHT22;61017;37.812;-122.286;2023-11-19T02:58:07;20.00;79.40
72883;DHT22;61017;37.812;-122.286;2023-11-19T02:59:39;20.00;79.40
72883;DHT22;61017;37.812;-122.286;2023-11-19T03:01:11;20.00;79.30
72883;DHT22;61017;37.812;-122.286;2023-11-19T03:02:44;20.00;79.30
72883;DHT22;61017;37.812;-122.286;2023-11-19T03:04:15;20.00;79.30
72883;DHT22;61017;37.812;-122.286;2023-11-19T03:05:48;20.00;79.00
72883;DHT22;61017;37.812;-122.286;2023-11-19T03:07:20;20.10;76.90
72883;DHT22;61017;37.812;-122.286;2023-11-19T03:08:51;20.30;74.80
72883;DHT22;61017;37.812;-122.286;2023-11-19T03:10:23;20.40;73.20
72883;DHT22;61017;37.812;-122.286;2023-11-19T03:11:54;20.60;71.50
72883;DHT22;61017;37.812;-122.286;2023-11-19T03:13:26;20.80;70.00
72883;DHT22;61017;37.812;-122.286;2023-11-19T03:14:58;20.90;68.50
72883;DHT22;61017;37.812;-122.286;2023-11-19T03:16:29;21.10;67.50
72883;DHT22;61017;37.812;-122.286;2023-11-19T03:18:01;21.20;66.10
72883;DHT22;61017;37.812;-122.286;2023-11-19T03:19:32;21.30;65.10
72883;DHT22;61017;37.812;-122.286;2023-11-19T03:21:05;21.40;64.40
72883;DHT22;61017;37.812;-122.286;2023-11-19T03:22:38;21.50;63.90
72883;DHT22;61017;37.812;-122.286;2023-11-19T03:24:10;21.50;63.10
72883;DHT22;61017;37.812;-122.286;2023-11-19T03:25:41;21.60;62.90
72883;DHT22;61017;37.812;-122.286;2023-11-19T03:27:13;21.60;62.60
72883;DHT22;61017;37.812;-122.286;2023-11-19T03:28:44;21.70;62.30
72883;DHT22;61017;37.812;-122.286;2023-11-19T03:30:16;21.60;62.10
72883;DHT22;61017;37.812;-122.286;2023-11-19T03:31:49;21.60;62.10
72883;DHT22;61017;37.812;-122.286;2023-11-19T03:33:20;21.60;62.10
72883;DHT22;61017;37.812;-122.286;2023-11-19T03:34:52;21.60;62.20
72883;DHT22;61017;37.812;-122.286;2023-11-19T03:36:23;21.50;62.20
72883;DHT22;61017;37.812;-122.286;2023-11-19T03:37:55;21.50;62.30
72883;DHT22;61017;37.812;-122.286;2023-11-19T03:39:27;21.50;62.80
72883;DHT22;61017;37.812;-122.286;2023-11-19T03:40:59;21.40;62.80
72883;DHT22;61017;37.812;-122.286;2023-11-19T03:42:31;21.40;62.80
72883;DHT22;61017;37.812;-122.286;2023-11-19T03:44:02;21.40;63.70
72883;DHT22;61017;37.812;-122.286;2023-11-19T03:45:34;21.30;64.80
72883;DHT22;61017;37.812;-122.286;2023-11-19T03:47:05;21.30;63.20
72883;DHT22;61017;37.812;-122.286;2023-11-19T03:48:37;21.40;62.20
72883;DHT22;61017;37.812;-122.286;2023-11-19T03:50:08;21.50;61.40
72883;DHT22;61017;37.812;-122.286;2023-11-19T03:51:40;21.60;60.70
72883;DHT22;61017;37.812;-122.286;2023-11-19T03:53:12;21.70;60.20
72883;DHT22;61017;37.812;-122.286;2023-11-19T03:54:45;21.80;59.70
72883;DHT22;61017;37.812;-122.286;2023-11-19T03:56:16;21.80;59.30
72883;DHT22;61017;37.812;-122.286;2023-11-19T03:57:48;22.00;59.20
72883;DHT22;61017;37.812;-122.286;2023-11-19T03:59:19;21.90;58.80
72883;DHT22;61017;37.812;-122.286;2023-11-19T04:00:51;22.00;58.50
72883;DHT22;61017;37.812;-122.286;2023-11-19T04:02:22;22.10;58.40
72883;DHT22;61017;37.812;-122.286;2023-11-19T04:03:54;22.10;58.40
72883;DHT22;61017;37.812;-122.286;2023-11-19T04:05:25;22.10;58.30
72883;DHT22;61017;37.812;-122.286;2023-11-19T04:06:57;22.00;58.40
72883;DHT22;61017;37.812;-122.286;2023-11-19T04:08:28;22.00;58.50
72883;DHT22;61017;37.812;-122.286;2023-11-19T04:10:00;21.90;58.80
72883;DHT22;61017;37.812;-122.286;2023-11-19T04:11:31;21.90;58.80
72883;DHT22;61017;37.812;-122.286;2023-11-19T04:13:03;21.80;58.80
72883;DHT22;61017;37.812;-122.286;2023-11-19T04:14:36;21.80;59.20
72883;DHT22;61017;37.812;-122.286;2023-11-19T04:16:08;21.70;59.30
72883;DHT22;61017;37.812;-122.286;2023-11-19T04:17:40;21.70;59.50
72883;DHT22;61017;37.812;-122.286;2023-11-19T04:19:11;21.60;59.60
72883;DHT22;61017;37.812;-122.286;2023-11-19T04:20:43;21.60;59.60
72883;DHT22;61017;37.812;-122.286;2023-11-19T04:22:14;21.60;59.70
72883;DHT22;61017;37.812;-122.286;2023-11-19T04:23:46;21.60;59.70
72883;DHT22;61017;37.812;-122.286;2023-11-19T04:25:17;21.60;59.80
72883;DHT22;61017;37.812;-122.286;2023-11-19T04:26:49;21.60;59.80
72883;DHT22;61017;37.812;-122.286;2023-11-19T04:28:21;21.60;60.90
72883;DHT22;61017;37.812;-122.286;2023-11-19T04:29:52;21.40;62.20
72883;DHT22;61017;37.812;-122.286;2023-11-19T04:31:28;21.50;60.90
72883;DHT22;61017;37.812;-122.286;2023-11-19T04:32:59;21.50;59.70
72883;DHT22;61017;37.812;-122.286;2023-11-19T04:34:31;21.60;59.40
72883;DHT22;61017;37.812;-122.286;2023-11-19T04:36:03;21.70;59.70
72883;DHT22;61017;37.812;-122.286;2023-11-19T04:37:34;21.80;58.80
72883;DHT22;61017;37.812;-122.286;2023-11-19T04:39:06;21.90;58.50
72883;DHT22;61017;37.812;-122.286;2023-11-19T04:40:37;22.00;58.30
72883;DHT22;61017;37.812;-122.286;2023-11-19T04:42:09;22.10;57.80
72883;DHT22;61017;37.812;-122.286;2023-11-19T04:43:40;22.10;57.60
72883;DHT22;61017;37.812;-122.286;2023-11-19T04:45:12;22.20;57.50
72883;DHT22;61017;37.812;-122.286;2023-11-19T04:46:43;22.20;57.30
72883;DHT22;61017;37.812;-122.286;2023-11-19T04:48:15;22.20;57.10
72883;DHT22;61017;37.812;-122.286;2023-11-19T04:49:47;22.20;57.20
72883;DHT22;61017;37.812;-122.286;2023-11-19T04:51:18;22.20;57.30
72883;DHT22;61017;37.812;-122.286;2023-11-19T04:52:50;22.10;57.50
72883;DHT22;61017;37.812;-122.286;2023-11-19T04:54:22;22.10;57.70
72883;DHT22;61017;37.812;-122.286;2023-11-19T04:55:53;22.10;57.80
72883;DHT22;61017;37.812;-122.286;2023-11-19T04:57:25;22.00;58.00
72883;DHT22;61017;37.812;-122.286;2023-11-19T04:58:56;22.00;58.20
72883;DHT22;61017;37.812;-122.286;2023-11-19T05:00:28;21.90;59.00
72883;DHT22;61017;37.812;-122.286;2023-11-19T05:02:00;21.80;58.40
72883;DHT22;61017;37.812;-122.286;2023-11-19T05:03:31;21.80;58.50
72883;DHT22;61017;37.812;-122.286;2023-11-19T05:05:03;21.80;58.70
72883;DHT22;61017;37.812;-122.286;2023-11-19T05:06:35;21.70;58.90
72883;DHT22;61017;37.812;-122.286;2023-11-19T05:08:07;21.80;59.20
72883;DHT22;61017;37.812;-122.286;2023-11-19T05:09:38;21.70;59.40
72883;DHT22;61017;37.812;-122.286;2023-11-19T05:11:10;21.70;59.70
72883;DHT22;61017;37.812;-122.286;2023-11-19T05:12:42;21.70;60.20
72883;DHT22;61017;37.812;-122.286;2023-11-19T05:14:13;21.60;60.80
72883;DHT22;61017;37.812;-122.286;2023-11-19T05:15:45;21.50;62.00
72883;DHT22;61017;37.812;-122.286;2023-11-19T05:17:18;21.40;62.90
72883;DHT22;61017;37.812;-122.286;2023-11-19T05:18:49;21.30;63.90
72883;DHT22;61017;37.812;-122.286;2023-11-19T05:20:21;21.20;64.50
72883;DHT22;61017;37.812;-122.286;2023-11-19T05:21:56;21.10;64.60
72883;DHT22;61017;37.812;-122.286;2023-11-19T05:23:27;21.00;65.00
72883;DHT22;61017;37.812;-122.286;2023-11-19T05:24:59;20.90;65.40
72883;DHT22;61017;37.812;-122.286;2023-11-19T05:26:30;20.90;65.70
72883;DHT22;61017;37.812;-122.286;2023-11-19T05:28:02;20.80;66.40
72883;DHT22;61017;37.812;-122.286;2023-11-19T05:29:34;20.80;66.60
72883;DHT22;61017;37.812;-122.286;2023-11-19T05:31:08;20.70;67.50
72883;DHT22;61017;37.812;-122.286;2023-11-19T05:32:40;20.70;67.60
72883;DHT22;61017;37.812;-122.286;2023-11-19T05:34:11;20.60;68.10
72883;DHT22;61017;37.812;-122.286;2023-11-19T05:35:43;20.50;68.20
72883;DHT22;61017;37.812;-122.286;2023-11-19T05:37:14;20.50;68.40
72883;DHT22;61017;37.812;-122.286;2023-11-19T05:38:46;20.50;68.60
72883;DHT22;61017;37.812;-122.286;2023-11-19T05:40:17;20.50;69.50
72883;DHT22;61017;37.812;-122.286;2023-11-19T05:41:52;20.40;69.10
72883;DHT22;61017;37.812;-122.286;2023-11-19T05:43:24;20.40;69.10
72883;DHT22;61017;37.812;-122.286;2023-11-19T05:44:55;20.40;69.30
72883;DHT22;61017;37.812;-122.286;2023-11-19T05:46:27;20.40;69.40
72883;DHT22;61017;37.812;-122.286;2023-11-19T05:47:58;20.40;70.20
72883;DHT22;61017;37.812;-122.286;2023-11-19T05:49:32;20.40;70.00
72883;DHT22;61017;37.812;-122.286;2023-11-19T05:51:07;20.30;70.30
72883;DHT22;61017;37.812;-122.286;2023-11-19T05:52:39;20.30;70.10
72883;DHT22;61017;37.812;-122.286;2023-11-19T05:54:10;20.30;70.70
72883;DHT22;61017;37.812;-122.286;2023-11-19T05:55:42;20.30;70.50
72883;DHT22;61017;37.812;-122.286;2023-11-19T05:57:14;20.20;70.50
72883;DHT22;61017;37.812;-122.286;2023-11-19T05:58:45;20.20;70.60
72883;DHT22;61017;37.812;-122.286;2023-11-19T06:00:20;20.20;70.90
72883;DHT22;61017;37.812;-122.286;2023-11-19T06:01:51;20.10;71.30
72883;DHT22;61017;37.812;-122.286;2023-11-19T06:03:23;20.10;71.10
72883;DHT22;61017;37.812;-122.286;2023-11-19T06:04:55;20.10;70.90
72883;DHT22;61017;37.812;-122.286;2023-11-19T06:06:27;20.10;71.40
72883;DHT22;61017;37.812;-122.286;2023-11-19T06:07:59;20.10;71.50
72883;DHT22;61017;37.812;-122.286;2023-11-19T06:09:31;20.00;71.00
72883;DHT22;61017;37.812;-122.286;2023-11-19T06:11:02;20.10;71.40
72883;DHT22;61017;37.812;-122.286;2023-11-19T06:12:34;20.00;70.90
72883;DHT22;61017;37.812;-122.286;2023-11-19T06:14:06;20.00;71.20
72883;DHT22;61017;37.812;-122.286;2023-11-19T06:15:38;20.00;71.60
72883;DHT22;61017;37.812;-122.286;2023-11-19T06:17:11;20.00;71.40
72883;DHT22;61017;37.812;-122.286;2023-11-19T06:18:45;20.00;71.60
72883;DHT22;61017;37.812;-122.286;2023-11-19T06:20:17;19.90;71.30
72883;DHT22;61017;37.812;-122.286;2023-11-19T06:21:51;19.90;72.30
72883;DHT22;61017;37.812;-122.286;2023-11-19T06:23:23;19.90;71.30
72883;DHT22;61017;37.812;-122.286;2023-11-19T06:24:57;19.90;71.20
72883;DHT22;61017;37.812;-122.286;2023-11-19T06:26:29;19.90;71.50
72883;DHT22;61017;37.812;-122.286;2023-11-19T06:28:01;19.80;71.40
72883;DHT22;61017;37.812;-122.286;2023-11-19T06:29:32;19.90;71.60
72883;DHT22;61017;37.812;-122.286;2023-11-19T06:31:04;19.80;71.60
72883;DHT22;61017;37.812;-122.286;2023-11-19T06:32:36;19.80;72.00
72883;DHT22;61017;37.812;-122.286;2023-11-19T06:34:08;19.80;71.10
72883;DHT22;61017;37.812;-122.286;2023-11-19T06:35:39;19.80;70.90
72883;DHT22;61017;37.812;-122.286;2023-11-19T06:37:11;19.80;71.10
72883;DHT22;61017;37.812;-122.286;2023-11-19T06:38:43;19.80;71.00
72883;DHT22;61017;37.812;-122.286;2023-11-19T06:40:16;19.70;70.70
72883;DHT22;61017;37.812;-122.286;2023-11-19T06:41:47;19.70;70.80
72883;DHT22;61017;37.812;-122.286;2023-11-19T06:43:19;19.70;70.80
72883;DHT22;61017;37.812;-122.286;2023-11-19T06:44:51;19.70;70.70
72883;DHT22;61017;37.812;-122.286;2023-11-19T06:46:22;19.70;70.50
72883;DHT22;61017;37.812;-122.286;2023-11-19T06:47:54;19.70;70.40
72883;DHT22;61017;37.812;-122.286;2023-11-19T06:49:28;19.70;70.60
72883;DHT22;61017;37.812;-122.286;2023-11-19T06:51:05;19.60;70.50
72883;DHT22;61017;37.812;-122.286;2023-11-19T06:52:36;19.60;70.60
72883;DHT22;61017;37.812;-122.286;2023-11-19T06:54:08;19.60;70.20
72883;DHT22;61017;37.812;-122.286;2023-11-19T06:55:40;19.60;70.20
72883;DHT22;61017;37.812;-122.286;2023-11-19T06:57:12;19.60;70.40
72883;DHT22;61017;37.812;-122.286;2023-11-19T06:58:44;19.60;70.30
72883;DHT22;61017;37.812;-122.286;2023-11-19T07:00:16;19.60;70.40
72883;DHT22;61017;37.812;-122.286;2023-11-19T07:01:50;19.60;70.40
72883;DHT22;61017;37.812;-122.286;2023-11-19T07:03:21;19.60;70.40
72883;DHT22;61017;37.812;-122.286;2023-11-19T07:04:53;19.60;70.30
72883;DHT22;61017;37.812;-122.286;2023-11-19T07:06:25;19.60;70.40
72883;DHT22;61017;37.812;-122.286;2023-11-19T07:07:56;19.50;70.30
72883;DHT22;61017;37.812;-122.286;2023-11-19T07:09:28;19.50;70.40
72883;DHT22;61017;37.812;-122.286;2023-11-19T07:11:02;19.50;70.40
72883;DHT22;61017;37.812;-122.286;2023-11-19T07:12:33;19.50;70.10
72883;DHT22;61017;37.812;-122.286;2023-11-19T07:14:06;19.50;70.20
72883;DHT22;61017;37.812;-122.286;2023-11-19T07:15:38;19.50;70.20
72883;DHT22;61017;37.812;-122.286;2023-11-19T07:17:09;19.50;70.20
72883;DHT22;61017;37.812;-122.286;2023-11-19T07:18:41;19.50;70.20
72883;DHT22;61017;37.812;-122.286;2023-11-19T07:20:13;19.50;70.20
72883;DHT22;61017;37.812;-122.286;2023-11-19T07:21:44;19.50;70.00
72883;DHT22;61017;37.812;-122.286;2023-11-19T07:23:16;19.50;70.10
72883;DHT22;61017;37.812;-122.286;2023-11-19T07:24:48;19.40;69.90
72883;DHT22;61017;37.812;-122.286;2023-11-19T07:26:23;19.40;69.90
72883;DHT22;61017;37.812;-122.286;2023-11-19T07:27:55;19.40;70.20
72883;DHT22;61017;37.812;-122.286;2023-11-19T07:29:27;19.40;70.10
72883;DHT22;61017;37.812;-122.286;2023-11-19T07:30:58;19.40;70.10
72883;DHT22;61017;37.812;-122.286;2023-11-19T07:32:30;19.40;70.00
72883;DHT22;61017;37.812;-122.286;2023-11-19T07:34:01;19.40;70.00
72883;DHT22;61017;37.812;-122.286;2023-11-19T07:35:33;19.40;70.00
72883;DHT22;61017;37.812;-122.286;2023-11-19T07:37:05;19.40;70.00
72883;DHT22;61017;37.812;-122.286;2023-11-19T07:38:37;19.40;70.10
72883;DHT22;61017;37.812;-122.286;2023-11-19T07:40:09;19.30;70.10
72883;DHT22;61017;37.812;-122.286;2023-11-19T07:41:41;19.30;70.30
72883;DHT22;61017;37.812;-122.286;2023-11-19T07:43:13;19.30;70.10
72883;DHT22;61017;37.812;-122.286;2023-11-19T07:44:45;19.30;69.90
72883;DHT22;61017;37.812;-122.286;2023-11-19T07:46:17;19.30;70.10
72883;DHT22;61017;37.812;-122.286;2023-11-19T07:47:49;19.30;70.20
72883;DHT22;61017;37.812;-122.286;2023-11-19T07:49:23;19.30;70.30
72883;DHT22;61017;37.812;-122.286;2023-11-19T07:50:55;19.30;70.40
72883;DHT22;61017;37.812;-122.286;2023-11-19T07:52:27;19.30;70.40
72883;DHT22;61017;37.812;-122.286;2023-11-19T07:53:58;19.30;70.30
72883;DHT22;61017;37.812;-122.286;2023-11-19T07:55:30;19.30;70.50
72883;DHT22;61017;37.812;-122.286;2023-11-19T07:57:02;19.30;70.30
72883;DHT22;61017;37.812;-122.286;2023-11-19T07:58:33;19.30;70.40
72883;DHT22;61017;37.812;-122.286;2023-11-19T08:00:05;19.30;70.50
72883;DHT22;61017;37.812;-122.286;2023-11-19T08:01:37;19.30;70.60
72883;DHT22;61017;37.812;-122.286;2023-11-19T08:03:09;19.30;70.50
72883;DHT22;61017;37.812;-122.286;2023-11-19T08:04:40;19.30;70.30
72883;DHT22;61017;37.812;-122.286;2023-11-19T08:06:12;19.30;71.20
72883;DHT22;61017;37.812;-122.286;2023-11-19T08:07:44;19.30;70.50
72883;DHT22;61017;37.812;-122.286;2023-11-19T08:09:18;19.30;70.70
72883;DHT22;61017;37.812;-122.286;2023-11-19T08:10:52;19.30;70.50
72883;DHT22;61017;37.812;-122.286;2023-11-19T08:12:27;19.20;70.60
72883;DHT22;61017;37.812;-122.286;2023-11-19T08:13:58;19.20;70.60
72883;DHT22;61017;37.812;-122.286;2023-11-19T08:15:30;19.20;70.40
72883;DHT22;61017;37.812;-122.286;2023-11-19T08:17:02;19.20;70.50
72883;DHT22;61017;37.812;-122.286;2023-11-19T08:18:33;19.20;70.50
72883;DHT22;61017;37.812;-122.286;2023-11-19T08:20:09;19.20;70.50
72883;DHT22;61017;37.812;-122.286;2023-11-19T08:21:41;19.20;70.70
72883;DHT22;61017;37.812;-122.286;2023-11-19T08:23:12;19.20;70.50
72883;DHT22;61017;37.812;-122.286;2023-11-19T08:24:44;19.20;70.50
72883;DHT22;61017;37.812;-122.286;2023-11-19T08:26:16;19.20;70.70
72883;DHT22;61017;37.812;-122.286;2023-11-19T08:27:47;19.20;70.50
72883;DHT22;61017;37.812;-122.286;2023-11-19T08:29:19;19.20;70.60
72883;DHT22;61017;37.812;-122.286;2023-11-19T08:30:50;19.20;70.60
72883;DHT22;61017;37.812;-122.286;2023-11-19T08:32:25;19.20;70.90
72883;DHT22;61017;37.812;-122.286;2023-11-19T08:33:56;19.20;70.80
72883;DHT22;61017;37.812;-122.286;2023-11-19T08:35:28;19.20;70.70
72883;DHT22;61017;37.812;-122.286;2023-11-19T08:37:00;19.20;70.50
72883;DHT22;61017;37.812;-122.286;2023-11-19T08:38:31;19.20;70.50
72883;DHT22;61017;37.812;-122.286;2023-11-19T08:40:03;19.20;70.70
72883;DHT22;61017;37.812;-122.286;2023-11-19T08:41:35;19.20;70.70
72883;DHT22;61017;37.812;-122.286;2023-11-19T08:43:07;19.10;70.60
72883;DHT22;61017;37.812;-122.286;2023-11-19T08:44:38;19.10;70.50
72883;DHT22;61017;37.812;-122.286;2023-11-19T08:46:11;19.10;70.60
72883;DHT22;61017;37.812;-122.286;2023-11-19T08:47:42;19.10;70.80
72883;DHT22;61017;37.812;-122.286;2023-11-19T08:49:14;19.10;70.70
72883;DHT22;61017;37.812;-122.286;2023-11-19T08:50:45;19.10;70.90
72883;DHT22;61017;37.812;-122.286;2023-11-19T08:52:17;19.10;70.70
72883;DHT22;61017;37.812;-122.286;2023-11-19T08:53:49;19.10;70.70
72883;DHT22;61017;37.812;-122.286;2023-11-19T08:55:20;19.10;70.70
72883;DHT22;61017;37.812;-122.286;2023-11-19T08:56:52;19.10;70.90
72883;DHT22;61017;37.812;-122.286;2023-11-19T08:58:23;19.10;70.90
72883;DHT22;61017;37.812;-122.286;2023-11-19T08:59:55;19.10;70.90
72883;DHT22;61017;37.812;-122.286;2023-11-19T09:01:26;19.10;71.00
72883;DHT22;61017;37.812;-122.286;2023-11-19T09:02:58;19.10;71.10
72883;DHT22;61017;37.812;-122.286;2023-11-19T09:04:29;19.10;71.40
72883;DHT22;61017;37.812;-122.286;2023-11-19T09:06:01;19.10;71.20
72883;DHT22;61017;37.812;-122.286;2023-11-19T09:07:33;19.10;71.30
72883;DHT22;61017;37.812;-122.286;2023-11-19T09:09:04;19.10;71.30
72883;DHT22;61017;37.812;-122.286;2023-11-19T09:10:36;19.10;71.10
72883;DHT22;61017;37.812;-122.286;2023-11-19T09:12:07;19.10;71.50
72883;DHT22;61017;37.812;-122.286;2023-11-19T09:13:39;19.10;71.10
72883;DHT22;61017;37.812;-122.286;2023-11-19T09:15:10;19.10;71.30